Huvudsida
METAR-TAF:

METAR-TAF

Flygplatser :

Hafar Al-Batin, Saudiarabien

latitud: 27-54N, longitud: 045-32E, höjd: 413 m

METAR: saknas

Tid: 16:57 (13:57 UTC)

Väderprognos

Denna rapport gjordes för 8 timmar och 57 minuter sedan, klockan 05:00 UTC
Prognos gäller från 12 kl. 06 UTC till 12 kl. 20 UTC
Vind 6 kt från ost/nordost i byarna ända upp till 16 kt
Sikt: 7000 m
Spridda moln på en höjd av 4000 ft
Spridda moln på en höjd av 10000 ft
Temporärt
från 12 kl. 06 UTC till 12 kl. 18 UTC
Vind 20 kt varierande vindriktning
Sikt: 3000 m
Få moln på en höjd av 3000 ft, Cumulonimbus.
Brutna moln på en höjd av 4000 ft
högt damm drev, åska, regn

TAF: OEKK 120500Z 1206/1220 06006G16KT 7000 SCT040 SCT100 TEMPO 1206/1218 VRB20KT 3000 BLDU TSRA FEW030CB BKN040

Aktuella väderrapporter och prognoser från 4000 flygplatser (METAR- och TAF-rapporter).

De tillgängliga stationerna syns som gula och röda prickar på kartan.

För musen över prickarna för att se namnen på stationerna.

Klicka sedan för att få väderrapporter och prognoser.

För att ändra kartan: Klicka på de gröna knapparna med ett svart kors på för att zooma in; den gröna knappen med ett streck på för att zooma ut; eller på de gröna pilarna för angränsande kartor.


METAR-TAF: